createdAt,value
2023-01-18T05:09:06.161Z,2.39
2023-01-18T05:49:25.094Z,2.66
2023-01-18T06:09:27.722Z,3.20
2023-01-18T06:29:30.222Z,3.46
2023-01-18T06:49:32.868Z,3.41
2023-01-18T07:09:35.630Z,3.32
2023-01-18T07:29:38.225Z,2.36
2023-01-18T07:49:42.425Z,2.77
2023-01-18T08:09:46.040Z,3.11
2023-01-18T08:29:49.365Z,3.40
2023-01-18T08:49:52.218Z,4.07
2023-01-18T09:09:55.803Z,4.35
2023-01-18T09:29:59.008Z,4.39
2023-01-18T09:50:03.459Z,4.33
2023-01-18T10:10:06.032Z,4.21
2023-01-18T10:30:08.587Z,4.28
2023-01-18T10:50:11.267Z,4.30
2023-01-18T11:10:13.861Z,3.81
2023-01-18T11:30:16.327Z,3.98
2023-01-18T11:50:22.407Z,4.23
2023-01-18T12:10:25.179Z,4.06
2023-01-18T12:30:27.727Z,3.99
2023-01-18T12:50:30.393Z,4.11
2023-01-18T13:10:33.246Z,3.45
2023-01-18T13:30:36.241Z,3.75
2023-01-18T13:50:39.455Z,3.64
2023-01-18T14:10:41.999Z,3.43
2023-01-18T15:31:48.865Z,4.11
2023-01-18T15:52:02.403Z,4.16
2023-01-18T16:12:27.348Z,4.29
2023-01-18T16:32:35.308Z,4.14
2023-01-18T16:52:38.563Z,4.21
2023-01-18T17:12:41.258Z,4.18
2023-01-18T17:32:49.121Z,4.28
2023-01-18T17:53:17.253Z,4.12
2023-01-18T18:13:22.394Z,3.98
2023-01-18T18:33:28.620Z,3.62
2023-01-18T18:53:43.688Z,2.98
2023-01-18T19:13:48.609Z,2.97
2023-01-18T19:33:51.950Z,3.44
2023-01-18T19:53:56.415Z,2.94
